Hauptseite
METAR-TAF:

METAR-TAF

Flughäfen :

Caracas, Venezuela

Flughafen Caracas

Breite: 10-36N, Länge: 066-59W, Höhe: 43 m

Beobachtung

Neuester Wetterbericht von vor 38 Minuten, um 01:00 UTC
Wind 5 kt aus Ost/Nordost
Temperatur 26°C
Luftfeuchtigkeit 84%
Luftdruck 1012 hPa
Sichtweite 10 km oder mehr
Aufgelockert bewölkt in der Höhe von 1600 ft

METAR: SVMI 190100Z 07005KT 9999 SCT016 26/23 Q1012

Zeit: 21:38 (01:38 UTC)

Prognose

Neuester Wetterbericht von vor 3 Stunden und 38 Minuten, um 22:00 UTC
Gültige Prognose vom 19 um 00 UTC bis 20 um 00 UTC
Wind 7 kt aus Ost
Sichtweite 10 km oder mehr
Leicht bewölkt in der Höhe von 1600 ft
Übergehend zu
vom 19 um 00 UTC bis 19 um 04 UTC
Wind 3 kt aus Ost
Aufgelockert bewölkt in der Höhe von 1600 ft

TAF: SVMI 182200Z 1900/2000 09007KT 9999 FEW016 TX32/19Z TN24/09Z BECMG 1900/1904 09003KT SCT016

Wetterbeobachtungen und Prognosen von mehr als 4000 Flughäfen (METAR und TAF Bericht).

Die verfügbaren Stationen werden durch gelbe und rote Markierungen auf der Karte dargestellt.

Führen Sie die Maus auf sie, um den Namen der Station zu sehen.

Darauf klicken, um die Beobachtung von Wetterbeobachtungen und Prognosen zu sehen.

Um die Karte zu ändern : klicken Sie auf den grünen Tasten mit einem schwarzen Kreuz Zum Vergrößern, auf den grünen Button mit einem Gedankenstrich zu verkleinern, oder auf die grünen Pfeile für benachbarte Karten.


METAR-TAF: